• Join FlightAware (Why Join?)
  • Login
  • US Flag 
05:52PM EDT


 

Airport Tracker/Info


-or-


 

Live Flight TrackerFlight Track Log ✈ EJM77 ✈ 20-Jun-2013 ✈ KMSP - KDAL

Flight Track Log - Related Links

Times and Time Zones

All times are in EDT time to prevent confusion due to time zone crossing. See the EJM77 flight status page for this flight to view local times or setup timezone preferences in your user account.

Time Position Orientation Groundspeed Altitude Reporting Facility
EDT Latitude Longitude Course Direction KTS MPH feet Rate Location/Type
11:03AM 44.8239 -93.2292 207° Southwest 199 229 3,300  Level Minneapolis Center
11:04AM 44.7583 -93.2336 183° South 247 284 5,900 1,740 Climbing Minneapolis Center
11:05AM 44.6975 -93.3058 220° Southwest 265 305 7,000 2,400 Climbing Minneapolis Center
11:06AM 44.6400 -93.3681 218° Southwest 256 295 10,900 2,520 Climbing Minneapolis Center
11:07AM 44.5883 -93.4311 221° Southwest 252 290 12,300 1,620 Climbing Minneapolis Center
11:08AM 44.5206 -93.5100 220° Southwest 295 339 14,300 1,860 Climbing Minneapolis Center
11:09AM 44.2396 -93.4517 207° Southwest  Level Estimated
11:09AM 44.4567 -93.5842 220° Southwest 303 349 16,200  Level Minneapolis Center
11:10AM 44.3822 -93.6572 215° Southwest 316 364 18,200 1,980 Climbing Minneapolis Center
11:11AM 44.3128 -93.7122 210° Southwest 327 376 20,400 2,100 Climbing Minneapolis Center
11:12AM 44.2156 -93.7900 210° Southwest 342 394 22,600 1,980 Climbing Minneapolis Center
11:14AM 44.1311 -93.8583 210° Southwest 353 406 24,600 1,680 Climbing Minneapolis Center
11:15AM 44.0500 -93.9228 210° Southwest 354 407 26,100 1,380 Climbing Minneapolis Center
11:16AM 43.9397 -94.0108 210° Southwest 379 436 27,500 1,320 Climbing Minneapolis Center
11:17AM 43.8428 -94.0872 210° Southwest 395 455 28,900 1,320 Climbing Minneapolis Center
11:18AM 43.7444 -94.1653 210° Southwest 405 466 30,300 1,320 Climbing Minneapolis Center
11:19AM 43.6425 -94.2447 209° Southwest 415 478 31,700 1,380 Climbing Minneapolis Center
11:20AM 43.5419 -94.3233 210° Southwest 416 479 33,200 1,260 Climbing Minneapolis Center
11:21AM 43.4411 -94.4006 209° Southwest 415 478 34,400 1,200 Climbing Minneapolis Center
11:22AM 43.3400 -94.4806 210° Southwest 417 480 35,700 1,260 Climbing Minneapolis Center
11:23AM 43.2133 -94.5644 206° Southwest 420 483 37,100 1,080 Climbing Minneapolis Center
11:24AM 43.1039 -94.6294 203° Southwest 426 490 38,000 420 Climbing Minneapolis Center
11:25AM 42.9928 -94.6944 203° Southwest 431 496 38,000  Level Minneapolis Center
11:26AM 42.8767 -94.7628 203° Southwest 448 516 38,000  Level Minneapolis Center
11:27AM 42.7636 -94.8286 203° Southwest 444 511 38,000  Level Minneapolis Center
11:28AM 42.6417 -94.8994 203° Southwest 444 511 38,000  Level Minneapolis Center
11:29AM 42.5269 -94.9656 203° Southwest 446 513 38,000  Level Minneapolis Center
11:30AM 42.4128 -95.0331 204° Southwest 447 514 38,000 300 Level Minneapolis Center
11:31AM 42.3003 -95.0961 203° Southwest 441 507 38,700 780 Climbing Minneapolis Center
11:32AM 42.1675 -95.1731 203° Southwest 433 498 39,700 600 Climbing Minneapolis Center
11:33AM 42.0592 -95.2350 203° Southwest 424 488 40,000 120 Climbing Minneapolis Center
11:34AM 41.9486 -95.2964 202° Southwest 427 491 40,000  Level Minneapolis Center
11:35AM 41.8378 -95.3603 203° Southwest 432 497 40,000  Level Minneapolis Center
11:36AM 41.7256 -95.4228 203° Southwest 433 498 40,000  Level Minneapolis Center
11:37AM 41.6139 -95.4847 203° Southwest 433 498 40,000  Level Minneapolis Center
11:38AM 41.5008 -95.5483 203° Southwest 436 502 40,000  Level Minneapolis Center
11:39AM 41.3872 -95.6125 203° Southwest 438 504 40,000  Level Minneapolis Center
11:40AM 41.2583 -95.6850 203° Southwest 437 503 40,000  Level Minneapolis Center
11:41AM 41.1433 -95.7333 198° South 437 503 40,000  Level Minneapolis Center
11:42AM 41.0072 -95.7394 182° South 447 514 40,000  Level Minneapolis Center
11:43AM 40.8828 -95.7397 180° South 446 513 40,000 180 Level Minneapolis Center
11:44AM 40.7592 -95.7400 180° South 444 511 40,400 300 Climbing Minneapolis Center
11:46AM 40.6364 -95.7419 181° South 441 507 40,700 240 Climbing Minneapolis Center
11:47AM 40.5150 -95.7436 181° South 437 503 41,000 120 Climbing Minneapolis Center
11:48AM 40.3925 -95.7447 180° South 438 504 41,000  Level Minneapolis Center
11:49AM 40.2439 -95.7467 181° South 443 510 41,000  Level Minneapolis Center
11:50AM 40.1208 -95.7469 180° South 442 509 41,000  Level Minneapolis Center
11:51AM 39.9792 -95.7508 181° South 440 506 41,000  Level Kansas City Center
11:52AM 39.8414 -95.7511 180° South 442 509 41,000  Level Kansas City Center
11:53AM 39.7239 -95.7519 180° South 442 509 41,000  Level Kansas City Center
11:54AM 39.5883 -95.7533 180° South 438 504 41,000  Level Kansas City Center
11:55AM 39.4725 -95.7553 181° South 437 503 41,000  Level Kansas City Center
11:56AM 39.3372 -95.7567 180° South 438 504 41,000  Level Kansas City Center
11:57AM 39.2208 -95.7578 180° South 439 505 41,000  Level Kansas City Center
11:58AM 39.0853 -95.7586 180° South 439 505 41,000  Level Kansas City Center
11:59AM 38.9686 -95.7600 181° South 440 506 41,000  Level Kansas City Center
12:00PM 38.8319 -95.7622 181° South 440 506 41,000  Level Kansas City Center
12:01PM 38.7144 -95.7631 180° South 442 509 41,000  Level Kansas City Center
12:02PM 38.5767 -95.7642 180° South 443 510 41,000  Level Kansas City Center
12:03PM 38.4583 -95.7653 180° South 445 512 41,000  Level Kansas City Center
12:04PM 38.3203 -95.7661 180° South 444 511 41,000  Level Kansas City Center
12:05PM 38.2014 -95.7678 181° South 445 512 41,000  Level Kansas City Center
12:06PM 38.0622 -95.7664 180° South 449 517 41,100 240 Climbing Kansas City Center
12:07PM 37.9444 -95.7533 175° South 445 512 41,600 480 Climbing Kansas City Center
12:08PM 37.8078 -95.7397 176° South 443 510 42,100 420 Climbing Kansas City Center
12:09PM 37.6858 -95.7311 177° South 439 505 42,500 360 Climbing Kansas City Center
12:11PM 37.5650 -95.7133 173° South 437 503 42,900 240 Climbing Kansas City Center
12:12PM 37.4422 -95.6925 172° South 442 509 43,000  Climbing Kansas City Center
12:13PM 37.3183 -95.6742 173° South 446 513 43,000  Level Kansas City Center
12:14PM 37.1947 -95.6536 172° South 447 514 43,000  Level Kansas City Center
12:15PM 37.0467 -95.6314 173° South 447 514 43,000  Level Kansas City Center
12:16PM 36.9239 -95.6128 173° South 445 512 43,000  Level Kansas City Center
12:17PM 36.8017 -95.5931 173° South 443 510 43,000 -60 Level Kansas City Center
12:18PM 36.6797 -95.5756 173° South 442 509 42,900  Descending Kansas City Center
12:19PM 36.5472 -95.5547 173° South 439 505 43,000  Climbing Kansas City Center
12:20PM 36.4250 -95.5356 173° South 440 506 43,000 -240 Level Kansas City Center
12:21PM 36.3011 -95.5158 173° South 443 510 42,600 -540 Descending Kansas City Center
12:22PM 36.1797 -95.4981 173° South 443 510 42,000 -540 Descending Kansas City Center
12:23PM 36.0547 -95.4789 173° South 440 506 41,500 -540 Descending Kansas City Center
12:24PM 35.9325 -95.4606 173° South 441 507 41,000 -540 Descending Kansas City Center
12:25PM 35.7811 -95.4372 173° South 452 520 40,400 -600 Descending Kansas City Center
12:26PM 35.6539 -95.4189 173° South 458 527 39,800 -540 Descending Kansas City Center
12:27PM 35.5267 -95.3994 173° South 459 528 39,300 -540 Descending Kansas City Center
12:28PM 35.3983 -95.3797 173° South 463 533 38,800 -480 Descending Kansas City Center
12:29PM 35.2672 -95.3611 173° South 469 540 38,400 -420 Descending Kansas City Center
12:30PM 35.1392 -95.3414 173° South 467 537 38,000 -300 Descending Kansas City Center
12:31PM 34.9844 -95.3189 173° South 464 534 37,800 -300 Descending Kansas City Center
12:32PM 34.8553 -95.3006 173° South 465 535 37,400 -780 Descending Kansas City Center
12:33PM 34.7317 -95.3283 190° South 456 525 36,300 -1,500 Descending Kansas City Center
12:35PM 34.5894 -95.4208 208° Southwest 439 505 34,100 -1,920 Descending Fort Worth Center
12:36PM 34.4842 -95.4989 211° Southwest 439 505 32,000 -2,220 Descending Fort Worth Center
12:37PM 34.3789 -95.5717 210° Southwest 439 505 29,700 -2,220 Descending Fort Worth Center
12:38PM 34.2778 -95.6417 210° Southwest 451 519 27,600 -2,220 Descending Fort Worth Center
12:39PM 34.1703 -95.7167 210° Southwest 456 525 25,300 -2,460 Descending Fort Worth Center
12:40PM 34.0544 -95.7917 208° Southwest 441 507 22,700 -2,460 Descending Fort Worth Center
12:41PM 33.9550 -95.8611 210° Southwest 429 494 20,400 -2,280 Descending Fort Worth Center
12:42PM 33.8703 -95.9200 210° Southwest 418 481 18,200 -2,340 Descending Fort Worth Center
12:43PM 33.7708 -95.9917 211° Southwest 395 455 15,800 -2,280 Descending Fort Worth Center
12:44PM 33.6839 -96.0481 208° Southwest 395 455 13,700 -2,340 Descending Fort Worth Center
12:45PM 33.5864 -96.1169 210° Southwest 386 444 11,200 -2,280 Descending Fort Worth Center
12:46PM 33.5139 -96.1653 209° Southwest 357 411 9,200 -1,140 Descending Fort Worth Center
12:47PM 33.4392 -96.2161 210° Southwest 302 348 9,000 -120 Descending Fort Worth Center
12:48PM 33.3856 -96.2617 215° Southwest 272 313 9,000  Level Fort Worth Center
12:49PM 33.3233 -96.3219 219° Southwest 261 300 9,000 -540 Level Fort Worth Center
12:50PM 33.2736 -96.3725 220° Southwest 261 300 8,000 -1,440 Descending Fort Worth Center
12:50PM 33.2500 -96.4000 224° Southwest 249 287 6,900 -2,040 Descending Dallas / Fort Worth TRACON
12:51PM 33.2000 -96.4667 228° Southwest 247 284 5,000 -1,560 Descending Dallas / Fort Worth TRACON
12:52PM 33.1667 -96.5167 231° Southwest 233 268 4,000 -540 Descending Dallas / Fort Worth TRACON
12:53PM 33.1167 -96.5833 228° Southwest 203 234 4,000  Level Dallas / Fort Worth TRACON
12:54PM 33.1064 -96.6050 240° Southwest 213 245 4,000  Level Fort Worth Center
12:55PM 33.0733 -96.6572 233° Southwest 218 251 4,000  Level Fort Worth Center
12:55PM 33.0500 -96.7000 237° Southwest 232 267 4,000 -120 Level Dallas / Fort Worth TRACON
12:56PM 33.0167 -96.7500 232° Southwest 224 258 3,900 -540 Descending Dallas / Fort Worth TRACON
12:57PM 32.9667 -96.8000 220° Southwest 204 235 3,000 -480 Descending Dallas / Fort Worth TRACON
12:58PM 32.9500 -96.8500 248° West 193 222 3,000 -300 Level Dallas / Fort Worth TRACON
12:59PM 32.9000 -96.8833 209° Southwest 131 151 2,400 -1,080 Descending Dallas / Fort Worth TRACON
01:00PM 32.8667 -96.8667 157° South 139 160 900 -1,680 Descending Dallas / Fort Worth TRACON
01:03PM 32.8471 -96.8518 228° Southwest  Level Estimated